Time;durP1;ratioP1;P1;durP2;ratioP2;P2;SDS_P1;SDS_P2;PMS_P1;PMS_P2;Temp;Humidity;BMP_temperature;BMP_pressure;BME280_temperature;BME280_humidity;BME280_pressure;Samples;Min_cycle;Max_cycle;Signal;HPM_P1;HPM_P2
2023/06/14 00:00:40;;;;;;;7.93;5.30;;;12.90;47.50;;;;;;5020367;28;20220;-57
2023/06/14 00:03:08;;;;;;;7.27;5.17;;;12.90;47.60;;;;;;5024553;28;20666;-57
2023/06/14 00:05:38;;;;;;;7.77;5.47;;;12.80;47.70;;;;;;5019335;28;20430;-58
2023/06/14 00:08:07;;;;;;;9.03;5.30;;;12.70;47.70;;;;;;5015758;28;20438;-56
2023/06/14 00:10:35;;;;;;;7.60;5.40;;;12.70;47.80;;;;;;5023621;28;20454;-57
2023/06/14 00:13:01;;;;;;;9.17;5.43;;;12.60;47.90;;;;;;5023135;28;20488;-57
2023/06/14 00:15:26;;;;;;;9.37;5.67;;;12.60;48.30;;;;;;5022336;28;20508;-56
2023/06/14 00:17:52;;;;;;;13.10;6.30;;;12.50;48.20;;;;;;5018341;28;20427;-56
2023/06/14 00:20:18;;;;;;;12.50;5.63;;;12.40;47.90;;;;;;5018884;28;20175;-57
2023/06/14 00:22:45;;;;;;;12.93;6.07;;;12.40;47.90;;;;;;5024902;28;20258;-57
2023/06/14 00:25:10;;;;;;;7.87;5.60;;;12.40;48.10;;;;;;5020703;28;21089;-56
2023/06/14 00:27:36;;;;;;;10.83;6.37;;;12.30;48.20;;;;;;5026852;28;20460;-58
2023/06/14 00:30:02;;;;;;;10.57;5.80;;;12.30;48.30;;;;;;5024490;28;20219;-57
2023/06/14 00:32:27;;;;;;;11.13;5.70;;;12.20;48.50;;;;;;5021142;28;20179;-57
2023/06/14 00:34:53;;;;;;;9.40;5.83;;;12.20;48.40;;;;;;5020304;28;20207;-56
2023/06/14 00:37:18;;;;;;;11.17;6.40;;;12.20;48.70;;;;;;5023940;28;20184;-58
2023/06/14 00:39:44;;;;;;;7.87;5.90;;;12.10;48.80;;;;;;5020935;28;20204;-57
2023/06/14 00:42:10;;;;;;;10.77;6.67;;;12.10;48.90;;;;;;5020909;28;20180;-57
2023/06/14 00:44:35;;;;;;;8.60;5.60;;;12.00;48.90;;;;;;5017078;28;20696;-57
2023/06/14 00:47:01;;;;;;;7.00;5.57;;;12.00;49.00;;;;;;5019950;28;20259;-57
2023/06/14 00:49:29;;;;;;;9.00;6.10;;;11.90;49.00;;;;;;5022557;28;22017;-57
2023/06/14 00:51:55;;;;;;;9.00;6.63;;;11.90;49.30;;;;;;5017957;28;20509;-57
2023/06/14 00:54:20;;;;;;;10.23;5.47;;;11.90;49.30;;;;;;5027335;28;20518;-58
2023/06/14 00:56:46;;;;;;;10.03;6.27;;;11.80;49.30;;;;;;5023212;28;20226;-57
2023/06/14 00:59:12;;;;;;;12.80;6.00;;;11.80;49.30;;;;;;5028475;28;20176;-58
2023/06/14 01:01:38;;;;;;;18.23;5.70;;;11.80;49.40;;;;;;5027109;28;20175;-56
2023/06/14 01:04:05;;;;;;;6.30;5.60;;;11.70;50.10;;;;;;5027981;28;20203;-57
2023/06/14 01:06:55;;;;;;;8.80;5.50;;;11.70;49.70;;;;;;5030121;28;20472;-55
2023/06/14 01:09:52;;;;;;;10.40;5.50;;;11.60;49.90;;;;;;5026384;28;20462;-56
2023/06/14 01:12:31;;;;;;;8.27;5.53;;;11.60;50.10;;;;;;5019185;28;20442;-56
2023/06/14 01:14:59;;;;;;;8.43;5.53;;;11.50;50.10;;;;;;5026053;28;20975;-56
2023/06/14 01:17:26;;;;;;;9.67;5.77;;;11.50;50.10;;;;;;5028222;28;21190;-58
2023/06/14 01:19:57;;;;;;;7.20;5.63;;;11.50;50.40;;;;;;5024743;28;20422;-58
2023/06/14 01:22:27;;;;;;;7.40;5.57;;;11.50;50.70;;;;;;5030147;28;20506;-57
2023/06/14 01:24:55;;;;;;;12.63;6.10;;;11.40;50.80;;;;;;5024325;28;20545;-58
2023/06/14 01:27:23;;;;;;;6.50;5.23;;;11.40;50.90;;;;;;5024608;28;20433;-56
2023/06/14 01:29:51;;;;;;;6.87;5.67;;;11.30;51.00;;;;;;5023163;28;20895;-58
2023/06/14 01:32:18;;;;;;;12.90;5.47;;;11.30;51.20;;;;;;5026258;28;20422;-56
2023/06/14 01:34:44;;;;;;;7.17;5.47;;;11.20;51.40;;;;;;5032406;28;20452;-58
2023/06/14 01:37:13;;;;;;;8.10;5.23;;;11.10;51.20;;;;;;5024474;28;20530;-58
2023/06/14 01:39:38;;;;;;;8.37;5.73;;;11.10;51.30;;;;;;5019508;28;20181;-58
2023/06/14 01:42:06;;;;;;;11.20;5.33;;;11.10;51.40;;;;;;5025490;28;20444;-57
2023/06/14 01:44:32;;;;;;;8.20;6.10;;;11.10;51.40;;;;;;5022549;28;20813;-56
2023/06/14 01:46:58;;;;;;;12.53;6.80;;;11.00;51.30;;;;;;5030207;28;20529;-57
2023/06/14 01:49:25;;;;;;;8.40;5.80;;;11.00;51.50;;;;;;5031891;28;20577;-57
2023/06/14 01:51:51;;;;;;;13.90;6.47;;;11.00;51.50;;;;;;5026678;28;20646;-58
2023/06/14 01:54:16;;;;;;;7.67;6.10;;;10.90;51.50;;;;;;5029504;28;21722;-56
2023/06/14 01:56:42;;;;;;;9.90;5.70;;;10.90;51.40;;;;;;5026343;28;20183;-56
2023/06/14 01:59:08;;;;;;;9.83;5.97;;;10.90;51.50;;;;;;5022162;28;20286;-57
2023/06/14 02:01:34;;;;;;;10.80;6.43;;;10.90;51.60;;;;;;5024307;28;20265;-57
2023/06/14 02:03:59;;;;;;;12.83;6.40;;;10.90;51.60;;;;;;5024628;28;20266;-58
2023/06/14 02:06:26;;;;;;;6.80;5.60;;;10.80;51.60;;;;;;5021404;28;20427;-56
2023/06/14 02:08:52;;;;;;;10.43;6.10;;;10.70;51.60;;;;;;5020729;28;20188;-57
2023/06/14 02:11:17;;;;;;;8.33;6.00;;;10.70;51.90;;;;;;5023607;28;20422;-56
2023/06/14 02:13:43;;;;;;;7.67;5.87;;;10.70;52.50;;;;;;5023171;28;20257;-56
2023/06/14 02:16:09;;;;;;;9.00;5.80;;;10.60;52.10;;;;;;5028109;28;20216;-55
2023/06/14 02:18:35;;;;;;;10.40;6.30;;;10.60;52.20;;;;;;5019748;28;20672;-56
2023/06/14 02:21:01;;;;;;;10.53;5.83;;;10.60;52.40;;;;;;5021088;28;20480;-56
2023/06/14 02:23:27;;;;;;;8.50;5.80;;;10.50;52.40;;;;;;5029209;28;20926;-57
2023/06/14 02:25:52;;;;;;;7.87;5.80;;;10.50;52.40;;;;;;5027063;28;20182;-56
2023/06/14 02:28:18;;;;;;;16.43;6.97;;;10.40;52.40;;;;;;5019263;28;20641;-54
2023/06/14 02:30:44;;;;;;;12.03;5.60;;;10.50;52.80;;;;;;5018940;28;20309;-55
2023/06/14 02:33:12;;;;;;;7.67;5.83;;;10.40;52.80;;;;;;5023974;28;20187;-55
2023/06/14 02:35:38;;;;;;;9.90;6.30;;;10.40;52.90;;;;;;5025478;28;20659;-57
2023/06/14 02:38:03;;;;;;;9.90;6.03;;;10.30;52.90;;;;;;5020596;28;20931;-56
2023/06/14 02:40:29;;;;;;;8.37;5.77;;;10.30;52.90;;;;;;5012260;28;20177;-57
2023/06/14 02:42:55;;;;;;;11.30;6.23;;;10.30;52.90;;;;;;5019948;28;20658;-58
2023/06/14 02:45:20;;;;;;;9.73;5.73;;;10.20;53.20;;;;;;5020719;28;20287;-55
2023/06/14 02:47:46;;;;;;;9.30;5.53;;;10.20;53.30;;;;;;5020560;28;20186;-56
2023/06/14 02:50:12;;;;;;;11.30;6.20;;;10.10;53.40;;;;;;5023024;28;20229;-57
2023/06/14 02:52:38;;;;;;;10.60;6.00;;;10.10;53.50;;;;;;5029807;28;20198;-57
2023/06/14 02:55:04;;;;;;;7.37;6.30;;;10.00;53.50;;;;;;5018396;28;20233;-57
2023/06/14 02:57:30;;;;;;;11.07;6.53;;;10.00;53.70;;;;;;5020944;28;20310;-59
2023/06/14 02:59:55;;;;;;;7.60;5.90;;;9.90;54.60;;;;;;5018144;28;20983;-57
2023/06/14 03:02:21;;;;;;;7.40;6.27;;;9.90;54.80;;;;;;5027276;28;20175;-55
2023/06/14 03:04:46;;;;;;;11.50;7.47;;;9.90;54.90;;;;;;5021139;28;20204;-54
2023/06/14 03:07:13;;;;;;;8.90;6.20;;;9.90;54.90;;;;;;5022757;28;20722;-56
2023/06/14 03:09:39;;;;;;;11.90;6.40;;;9.80;54.90;;;;;;5015827;28;20192;-57
2023/06/14 03:12:09;;;;;;;12.97;6.83;;;9.80;55.10;;;;;;5021642;28;20477;-57
2023/06/14 03:14:35;;;;;;;9.13;6.30;;;9.80;55.20;;;;;;5020027;28;20932;-57
2023/06/14 03:17:02;;;;;;;12.90;6.40;;;9.80;55.30;;;;;;5020976;28;21093;-56
2023/06/14 03:19:27;;;;;;;8.83;6.60;;;9.70;55.30;;;;;;5017701;28;20480;-56
2023/06/14 03:21:56;;;;;;;14.70;7.07;;;9.70;55.30;;;;;;5023916;28;21009;-55
2023/06/14 03:24:23;;;;;;;15.30;6.23;;;9.70;55.30;;;;;;5014840;28;20227;-54
2023/06/14 03:26:48;;;;;;;8.80;5.77;;;9.70;55.20;;;;;;5021979;28;20861;-57
2023/06/14 03:29:14;;;;;;;10.30;6.80;;;9.70;55.30;;;;;;5025456;28;20500;-56
2023/06/14 03:31:56;;;;;;;13.13;6.40;;;9.70;55.40;;;;;;5028475;28;20184;-56
2023/06/14 03:34:22;;;;;;;9.10;6.33;;;9.70;55.50;;;;;;5016213;28;20291;-56
2023/06/14 03:36:47;;;;;;;12.50;6.83;;;9.60;55.40;;;;;;5017648;28;20521;-57
2023/06/14 03:39:13;;;;;;;11.53;6.53;;;9.60;55.50;;;;;;5024010;28;20735;-57
2023/06/14 03:41:38;;;;;;;7.63;6.07;;;9.60;55.70;;;;;;5024527;28;20191;-57
2023/06/14 03:44:04;;;;;;;9.47;6.23;;;9.60;55.80;;;;;;5022017;28;20212;-56
2023/06/14 03:46:30;;;;;;;9.43;6.50;;;9.60;56.00;;;;;;5022668;28;20705;-57
2023/06/14 03:48:55;;;;;;;7.90;6.23;;;9.50;56.30;;;;;;5018149;28;20198;-56
2023/06/14 03:51:22;;;;;;;12.03;6.50;;;9.50;56.10;;;;;;5022912;28;20199;-57
2023/06/14 03:53:48;;;;;;;12.80;6.83;;;9.60;56.50;;;;;;5021095;28;20647;-55
2023/06/14 03:56:13;;;;;;;9.27;6.30;;;9.60;55.90;;;;;;5019931;28;20443;-56
2023/06/14 03:58:39;;;;;;;11.93;6.17;;;9.60;55.90;;;;;;5016271;28;20176;-55
2023/06/14 04:01:06;;;;;;;12.80;6.63;;;9.60;55.90;;;;;;5017480;28;20179;-54
2023/06/14 04:03:33;;;;;;;10.03;6.53;;;9.60;55.70;;;;;;5017562;28;20215;-59
2023/06/14 04:05:59;;;;;;;10.87;6.57;;;9.70;55.70;;;;;;5024659;28;20431;-58
2023/06/14 04:08:25;;;;;;;13.07;7.07;;;9.70;55.80;;;;;;5022747;28;21035;-57
2023/06/14 04:10:51;;;;;;;17.43;7.07;;;9.70;55.80;;;;;;5018432;28;20553;-56
2023/06/14 04:13:17;;;;;;;10.23;7.63;;;9.70;55.80;;;;;;5016877;28;20204;-55
2023/06/14 04:15:45;;;;;;;11.30;7.27;;;9.70;55.90;;;;;;5014577;28;20633;-55
2023/06/14 04:18:11;;;;;;;11.83;6.90;;;9.70;55.80;;;;;;5015680;28;20431;-56
2023/06/14 04:20:36;;;;;;;16.40;7.80;;;9.70;55.90;;;;;;5017160;28;20449;-58
2023/06/14 04:23:15;;;;;;;9.23;6.93;;;9.80;56.20;;;;;;5019721;28;20551;-56
2023/06/14 04:25:44;;;;;;;12.17;7.10;;;9.80;56.10;;;;;;5018096;28;20189;-56
2023/06/14 04:28:11;;;;;;;10.20;6.43;;;9.80;56.00;;;;;;5015820;28;20457;-57
2023/06/14 04:30:38;;;;;;;10.97;6.63;;;9.90;56.10;;;;;;5014383;28;21002;-59
2023/06/14 04:33:07;;;;;;;12.93;8.03;;;9.90;56.00;;;;;;5016134;28;20872;-57
2023/06/14 04:35:32;;;;;;;9.20;6.80;;;9.90;55.90;;;;;;5009171;28;20450;-58
2023/06/14 04:37:59;;;;;;;11.83;6.03;;;10.00;55.40;;;;;;5019112;28;20453;-53
2023/06/14 04:40:25;;;;;;;8.97;6.33;;;10.10;55.20;;;;;;5012733;28;20210;-59
2023/06/14 04:42:50;;;;;;;9.30;7.30;;;10.10;55.10;;;;;;5014735;28;20426;-59
2023/06/14 04:45:16;;;;;;;9.83;7.40;;;10.10;55.00;;;;;;5021187;28;20204;-56
2023/06/14 04:47:43;;;;;;;14.73;7.90;;;10.20;55.30;;;;;;5026239;28;20277;-58
2023/06/14 04:50:10;;;;;;;7.37;6.20;;;10.20;55.30;;;;;;5022127;28;20467;-58
2023/06/14 04:52:36;;;;;;;9.80;6.87;;;10.30;55.40;;;;;;5018964;28;20434;-58
2023/06/14 04:55:03;;;;;;;11.40;6.90;;;10.30;55.20;;;;;;5026722;28;20525;-57
2023/06/14 04:57:29;;;;;;;12.50;7.67;;;10.40;54.80;;;;;;5014684;28;20439;-56
2023/06/14 04:59:55;;;;;;;11.67;7.90;;;10.40;54.60;;;;;;5018520;28;20434;-57
2023/06/14 05:02:25;;;;;;;8.47;6.73;;;10.40;54.70;;;;;;5018488;28;20434;-57
2023/06/14 05:04:52;;;;;;;8.17;6.73;;;10.50;54.80;;;;;;5025695;28;20283;-59
2023/06/14 05:07:17;;;;;;;8.63;6.63;;;10.60;54.90;;;;;;5018164;28;20442;-58
2023/06/14 05:09:44;;;;;;;10.30;7.07;;;10.60;54.70;;;;;;5013990;28;20481;-57
2023/06/14 05:12:09;;;;;;;10.47;6.67;;;10.80;54.90;;;;;;5021332;28;20172;-57
2023/06/14 05:14:36;;;;;;;11.50;6.47;;;10.80;54.50;;;;;;5023085;28;20783;-57
2023/06/14 05:17:02;;;;;;;9.97;6.50;;;10.90;54.40;;;;;;5024502;28;20183;-58
2023/06/14 05:19:28;;;;;;;9.10;7.07;;;10.90;54.20;;;;;;5017495;28;20422;-59
2023/06/14 05:21:54;;;;;;;11.90;7.90;;;11.00;54.00;;;;;;5017225;28;20484;-58
2023/06/14 05:24:19;;;;;;;12.60;8.17;;;11.00;53.70;;;;;;5025976;28;20260;-56
2023/06/14 05:26:45;;;;;;;12.37;8.40;;;11.10;53.50;;;;;;5022271;28;20180;-57
2023/06/14 05:29:11;;;;;;;14.17;8.87;;;11.10;53.60;;;;;;5018378;28;20201;-59
2023/06/14 05:31:37;;;;;;;14.33;8.73;;;11.20;54.30;;;;;;5017032;28;20445;-59
2023/06/14 05:34:03;;;;;;;16.43;10.23;;;11.30;54.50;;;;;;5020127;28;20674;-58
2023/06/14 05:36:29;;;;;;;16.10;9.97;;;11.40;54.30;;;;;;5020319;28;20264;-59
2023/06/14 05:38:57;;;;;;;17.03;9.13;;;11.60;54.60;;;;;;5021835;28;20497;-56
2023/06/14 05:41:25;;;;;;;16.63;9.17;;;11.70;54.60;;;;;;5021175;28;20199;-58
2023/06/14 05:43:51;;;;;;;14.93;9.60;;;11.80;54.80;;;;;;5021602;28;20453;-58
2023/06/14 05:46:21;;;;;;;15.27;9.57;;;11.90;54.80;;;;;;5025207;28;20438;-57
2023/06/14 05:48:48;;;;;;;14.97;9.47;;;12.10;54.60;;;;;;5029314;28;20430;-58
2023/06/14 05:51:14;;;;;;;17.90;9.70;;;12.20;54.70;;;;;;5024216;28;20449;-57
2023/06/14 05:53:40;;;;;;;13.67;9.53;;;12.30;54.70;;;;;;5018893;28;20512;-59
2023/06/14 05:56:05;;;;;;;14.90;9.60;;;12.40;54.60;;;;;;5018476;28;20966;-56
2023/06/14 05:58:31;;;;;;;15.10;9.03;;;12.40;54.30;;;;;;5023605;28;20186;-58
2023/06/14 06:00:57;;;;;;;16.13;9.40;;;12.50;54.40;;;;;;5021855;28;20188;-55
2023/06/14 06:03:23;;;;;;;13.73;9.20;;;12.60;54.20;;;;;;5019020;28;20241;-58
2023/06/14 06:05:49;;;;;;;18.03;9.20;;;12.80;54.00;;;;;;5021539;28;20641;-58
2023/06/14 06:08:16;;;;;;;23.97;9.70;;;12.80;53.70;;;;;;5026351;28;20437;-56
2023/06/14 06:10:42;;;;;;;13.70;8.60;;;13.00;54.00;;;;;;5018934;28;20207;-56
2023/06/14 06:13:07;;;;;;;22.87;9.37;;;13.10;53.40;;;;;;5021216;28;20426;-56
2023/06/14 06:15:33;;;;;;;16.10;10.00;;;13.20;53.60;;;;;;5017144;28;20288;-57
2023/06/14 06:17:59;;;;;;;20.40;9.90;;;13.30;53.40;;;;;;5020563;28;20188;-58
2023/06/14 06:20:28;;;;;;;21.40;10.87;;;13.50;53.00;;;;;;5019828;28;20186;-58
2023/06/14 06:22:54;;;;;;;17.27;10.27;;;13.60;53.00;;;;;;5018706;28;20179;-58
2023/06/14 06:25:20;;;;;;;14.63;9.97;;;13.80;53.10;;;;;;5020548;28;20450;-58
2023/06/14 06:27:46;;;;;;;22.13;10.17;;;13.90;52.90;;;;;;5021454;28;20180;-55
2023/06/14 06:30:12;;;;;;;21.10;11.10;;;14.00;52.70;;;;;;5016876;28;20486;-57
2023/06/14 06:32:37;;;;;;;17.90;11.33;;;14.10;53.10;;;;;;5020580;28;20192;-58
2023/06/14 06:35:06;;;;;;;22.17;10.93;;;14.30;52.40;;;;;;5023910;28;20468;-57
2023/06/14 06:37:31;;;;;;;25.13;11.27;;;14.50;52.70;;;;;;5016413;28;20227;-57
2023/06/14 06:39:58;;;;;;;22.70;10.93;;;14.60;51.50;;;;;;5020168;28;21194;-58
2023/06/14 06:42:24;;;;;;;24.87;11.70;;;14.80;51.30;;;;;;5021269;28;20466;-58
2023/06/14 06:44:50;;;;;;;20.33;10.83;;;15.00;51.30;;;;;;5022174;28;20297;-56
2023/06/14 06:47:15;;;;;;;20.10;11.00;;;15.10;51.10;;;;;;5015048;28;20479;-55
2023/06/14 06:49:41;;;;;;;27.63;11.93;;;15.30;50.70;;;;;;5013436;28;20216;-56
2023/06/14 06:52:07;;;;;;;29.33;11.83;;;15.50;50.30;;;;;;5018414;28;20192;-56
2023/06/14 06:54:33;;;;;;;20.47;10.63;;;15.60;49.90;;;;;;5020416;28;20195;-57
2023/06/14 06:57:00;;;;;;;23.73;10.40;;;15.70;49.50;;;;;;5018487;28;21060;-57
2023/06/14 06:59:26;;;;;;;23.30;10.17;;;15.80;49.30;;;;;;5018919;28;20430;-57
2023/06/14 07:01:51;;;;;;;20.73;12.03;;;16.00;49.60;;;;;;5018810;28;20435;-57
2023/06/14 07:04:17;;;;;;;22.27;11.20;;;16.20;49.10;;;;;;5018952;28;20210;-57
2023/06/14 07:06:43;;;;;;;30.00;10.83;;;16.30;48.60;;;;;;5026271;28;20224;-57
2023/06/14 07:09:12;;;;;;;16.93;8.30;;;16.50;48.60;;;;;;5021601;28;20211;-56
2023/06/14 07:11:39;;;;;;;20.40;8.83;;;16.70;48.00;;;;;;5021301;28;20634;-56
2023/06/14 07:14:05;;;;;;;15.80;8.50;;;16.90;47.20;;;;;;5021086;28;20454;-57
2023/06/14 07:16:31;;;;;;;16.73;8.10;;;17.10;46.70;;;;;;5024260;28;20474;-57
2023/06/14 07:18:56;;;;;;;17.00;7.40;;;17.20;46.20;;;;;;5019617;28;20215;-57
2023/06/14 07:21:22;;;;;;;11.60;6.00;;;17.40;46.00;;;;;;5022207;28;20195;-56
2023/06/14 07:23:47;;;;;;;16.97;7.07;;;17.60;45.50;;;;;;5017171;28;20763;-56
2023/06/14 07:26:13;;;;;;;9.00;5.60;;;17.80;44.80;;;;;;5021150;28;20188;-56
2023/06/14 07:28:39;;;;;;;11.20;5.87;;;17.90;45.10;;;;;;5020276;28;20685;-55
2023/06/14 07:31:05;;;;;;;14.80;5.73;;;18.10;44.10;;;;;;5017984;28;20229;-57
2023/06/14 07:33:30;;;;;;;7.70;4.77;;;18.30;44.10;;;;;;5014648;28;20431;-57
2023/06/14 07:35:56;;;;;;;9.17;5.40;;;18.40;43.60;;;;;;5009105;28;20288;-56
2023/06/14 07:38:21;;;;;;;9.13;5.23;;;18.60;43.40;;;;;;5020058;28;20666;-57
2023/06/14 07:40:47;;;;;;;6.80;4.03;;;18.80;43.70;;;;;;5022152;28;20191;-56
2023/06/14 07:43:13;;;;;;;6.77;3.90;;;18.90;42.70;;;;;;5021458;28;20191;-56
2023/06/14 07:45:38;;;;;;;9.63;4.17;;;19.10;41.80;;;;;;5023146;28;20227;-57
2023/06/14 07:48:04;;;;;;;8.00;4.23;;;19.20;41.50;;;;;;5023511;28;20670;-57
2023/06/14 07:50:30;;;;;;;10.83;4.27;;;19.40;41.30;;;;;;5020856;28;20204;-57
2023/06/14 07:52:56;;;;;;;9.90;4.07;;;19.50;40.70;;;;;;5021479;28;20683;-57
2023/06/14 07:55:22;;;;;;;5.57;4.50;;;19.60;40.50;;;;;;5020164;28;20273;-56
2023/06/14 07:57:47;;;;;;;4.53;4.00;;;19.70;40.10;;;;;;5015674;28;21097;-56
2023/06/14 08:00:15;;;;;;;6.10;3.67;;;19.90;39.30;;;;;;5019494;28;20893;-57
2023/06/14 08:02:42;;;;;;;5.80;3.50;;;20.00;39.40;;;;;;5022515;28;20547;-56
2023/06/14 08:05:10;;;;;;;10.40;4.20;;;20.10;38.80;;;;;;5021371;28;20464;-58
2023/06/14 08:07:36;;;;;;;7.77;4.20;;;20.20;38.30;;;;;;5020177;28;20442;-57
2023/06/14 08:10:02;;;;;;;5.30;3.73;;;20.30;39.20;;;;;;5024665;28;20481;-57
2023/06/14 08:12:28;;;;;;;6.30;3.70;;;20.40;37.70;;;;;;5019753;28;20184;-57
2023/06/14 08:14:53;;;;;;;8.20;3.63;;;20.50;38.00;;;;;;5026508;28;20465;-57
2023/06/14 08:17:19;;;;;;;4.90;4.03;;;20.60;38.80;;;;;;5024973;28;20183;-56
2023/06/14 08:19:45;;;;;;;6.43;4.10;;;20.70;37.00;;;;;;5022118;28;20507;-57
2023/06/14 08:22:12;;;;;;;6.40;4.30;;;20.80;36.90;;;;;;5020105;28;20199;-57
2023/06/14 08:24:39;;;;;;;8.77;4.03;;;20.90;37.30;;;;;;5020089;28;20207;-56
2023/06/14 08:27:05;;;;;;;5.57;3.50;;;20.90;36.60;;;;;;5017194;28;20568;-57
2023/06/14 08:29:31;;;;;;;4.80;3.87;;;21.00;35.90;;;;;;5019088;28;20462;-56
2023/06/14 08:31:57;;;;;;;5.10;3.97;;;21.10;35.60;;;;;;5019926;28;20438;-56
2023/06/14 08:34:25;;;;;;;7.23;4.07;;;21.20;35.60;;;;;;5022025;28;20196;-56
2023/06/14 08:36:51;;;;;;;8.17;4.70;;;21.30;35.50;;;;;;5024017;28;20198;-57
2023/06/14 08:39:16;;;;;;;6.87;4.40;;;21.30;34.60;;;;;;5016834;28;20442;-56
2023/06/14 08:41:46;;;;;;;9.93;4.23;;;21.40;34.30;;;;;;5022204;28;20663;-57
2023/06/14 08:44:12;;;;;;;5.07;3.90;;;21.40;34.30;;;;;;5023154;28;20758;-57
2023/06/14 08:46:38;;;;;;;7.40;4.07;;;21.50;34.60;;;;;;5024564;28;20434;-58
2023/06/14 08:49:06;;;;;;;4.53;4.10;;;21.60;34.60;;;;;;5017227;28;20524;-57
2023/06/14 08:51:36;;;;;;;14.97;4.50;;;21.60;34.40;;;;;;5017367;28;20426;-56
2023/06/14 08:54:03;;;;;;;4.73;4.23;;;21.70;34.70;;;;;;5022692;28;20446;-56
2023/06/14 08:56:30;;;;;;;5.50;4.47;;;21.90;34.50;;;;;;5022478;28;20498;-58
2023/06/14 08:58:57;;;;;;;4.47;3.80;;;22.00;34.30;;;;;;5013450;28;20947;-57
2023/06/14 09:01:24;;;;;;;10.90;4.83;;;22.00;34.20;;;;;;5019120;28;20998;-57
2023/06/14 09:03:50;;;;;;;7.93;5.20;;;22.10;34.20;;;;;;5016718;28;21445;-56
2023/06/14 09:06:18;;;;;;;8.70;5.80;;;22.20;33.30;;;;;;5017296;28;20461;-57
2023/06/14 09:08:46;;;;;;;6.33;4.40;;;22.20;33.10;;;;;;5018604;28;20526;-57
2023/06/14 09:11:12;;;;;;;6.60;4.80;;;22.30;33.30;;;;;;5020482;28;20463;-58
2023/06/14 09:13:39;;;;;;;11.20;3.97;;;22.40;32.80;;;;;;5018672;28;20886;-57
2023/06/14 09:16:05;;;;;;;6.80;4.63;;;22.40;33.30;;;;;;5021417;28;20744;-58
2023/06/14 09:18:39;;;;;;;8.63;4.20;;;22.50;33.80;;;;;;5022277;28;20536;-58
2023/06/14 09:21:08;;;;;;;6.57;4.00;;;22.60;33.80;;;;;;5023362;28;20431;-59
2023/06/14 09:23:38;;;;;;;7.30;4.70;;;22.70;34.10;;;;;;5024372;28;20517;-59
2023/06/14 09:26:14;;;;;;;8.50;4.00;;;22.80;34.00;;;;;;5018089;28;20449;-59
2023/06/14 09:28:47;;;;;;;6.07;4.23;;;22.80;33.10;;;;;;5014109;28;20491;-60
2023/06/14 09:31:18;;;;;;;4.60;4.20;;;22.90;33.20;;;;;;5019303;28;20472;-58
2023/06/14 09:33:48;;;;;;;5.87;4.60;;;23.00;33.40;;;;;;5015336;28;20516;-60
2023/06/14 09:36:22;;;;;;;6.60;4.20;;;23.10;33.40;;;;;;5021551;28;21045;-61
2023/06/14 09:39:00;;;;;;;5.83;4.40;;;23.10;32.70;;;;;;5022678;28;20442;-59
2023/06/14 09:41:40;;;;;;;8.40;4.50;;;23.20;32.10;;;;;;5010378;28;20491;-59
2023/06/14 09:44:08;;;;;;;5.57;4.50;;;23.30;32.00;;;;;;5023979;28;20469;-57
2023/06/14 09:46:34;;;;;;;4.17;3.67;;;23.40;31.90;;;;;;5028445;28;20418;-57
2023/06/14 09:49:00;;;;;;;5.53;4.93;;;23.40;31.90;;;;;;5018492;28;21092;-59
2023/06/14 09:51:27;;;;;;;7.10;4.90;;;23.50;32.80;;;;;;5025278;28;20946;-60
2023/06/14 09:54:01;;;;;;;7.00;3.90;;;23.70;33.10;;;;;;5020423;28;20477;-58
2023/06/14 09:56:29;;;;;;;6.40;3.90;;;23.90;33.20;;;;;;5020666;28;20514;-55
2023/06/14 09:58:57;;;;;;;7.33;4.30;;;24.00;32.00;;;;;;5021735;28;20434;-60
2023/06/14 10:01:30;;;;;;;7.60;3.97;;;24.10;32.10;;;;;;5028476;28;20513;-60
2023/06/14 10:04:05;;;;;;;6.97;4.70;;;24.20;31.80;;;;;;5030433;28;20476;-58
2023/06/14 10:06:31;;;;;;;8.80;4.37;;;24.20;31.50;;;;;;5023833;28;20417;-60
2023/06/14 10:09:01;;;;;;;6.97;4.17;;;24.20;31.80;;;;;;5024920;28;20433;-59
2023/06/14 10:11:27;;;;;;;6.60;4.40;;;24.20;31.20;;;;;;5026768;28;20963;-59
2023/06/14 10:13:58;;;;;;;6.30;4.53;;;24.20;32.70;;;;;;5027397;28;20457;-59
2023/06/14 10:17:00;;;;;;;10.70;3.90;;;24.40;32.30;;;;;;5023597;28;20261;-58
2023/06/14 10:19:34;;;;;;;5.03;3.60;;;24.60;31.50;;;;;;5018360;28;21170;-58
2023/06/14 10:22:16;;;;;;;6.00;4.50;;;24.40;31.10;;;;;;5020777;28;20423;-60
2023/06/14 10:24:43;;;;;;;5.77;4.47;;;24.50;32.00;;;;;;5023666;28;20452;-57
2023/06/14 10:27:10;;;;;;;5.90;4.50;;;24.60;32.80;;;;;;5026116;28;20434;-59
2023/06/14 10:30:01;;;;;;;6.77;4.83;;;24.80;31.70;;;;;;5016163;28;20478;-58
2023/06/14 10:32:30;;;;;;;4.87;3.90;;;25.10;32.00;;;;;;5023585;28;21009;-60
2023/06/14 10:35:00;;;;;;;5.07;3.93;;;25.00;29.20;;;;;;5024610;28;20438;-56
2023/06/14 10:37:26;;;;;;;5.30;3.70;;;24.80;29.70;;;;;;5028134;28;20453;-55
2023/06/14 10:39:53;;;;;;;7.40;4.10;;;24.70;30.20;;;;;;5024877;28;20430;-57
2023/06/14 10:42:19;;;;;;;7.47;4.27;;;24.90;31.10;;;;;;5024442;28;20183;-57
2023/06/14 10:44:52;;;;;;;4.80;4.00;;;25.10;30.90;;;;;;5022201;28;20465;-58
2023/06/14 10:47:24;;;;;;;7.90;4.60;;;25.10;29.90;;;;;;5023406;28;20528;-57
2023/06/14 10:49:52;;;;;;;4.67;4.20;;;25.20;29.90;;;;;;5016557;28;20491;-57
2023/06/14 10:52:22;;;;;;;6.60;4.30;;;25.40;30.70;;;;;;5022493;28;20426;-58
2023/06/14 10:55:03;;;;;;;4.70;3.87;;;25.60;30.70;;;;;;5022799;28;21077;-57
2023/06/14 10:57:31;;;;;;;4.73;4.20;;;25.70;30.00;;;;;;5017784;28;20427;-57
2023/06/14 10:59:58;;;;;;;9.90;4.47;;;25.70;29.60;;;;;;5011251;28;20537;-59
2023/06/14 11:02:36;;;;;;;8.47;4.63;;;25.70;29.40;;;;;;5022901;28;20434;-57
2023/06/14 11:05:07;;;;;;;5.03;4.10;;;25.80;29.80;;;;;;5015138;28;20493;-57
2023/06/14 11:07:39;;;;;;;6.40;4.30;;;26.00;31.20;;;;;;5019762;28;20933;-58
2023/06/14 11:10:16;;;;;;;9.50;4.27;;;26.30;31.80;;;;;;5010399;28;20470;-57
2023/06/14 11:12:47;;;;;;;4.13;3.70;;;26.50;31.20;;;;;;5015080;28;20422;-59
2023/06/14 11:15:13;;;;;;;7.10;4.90;;;26.60;30.70;;;;;;5017614;28;20489;-58
2023/06/14 11:17:39;;;;;;;5.80;4.57;;;26.80;30.70;;;;;;5015835;28;20524;-58
2023/06/14 11:20:15;;;;;;;6.87;4.20;;;27.00;30.20;;;;;;5017670;28;20186;-57
2023/06/14 11:22:42;;;;;;;5.73;4.07;;;27.00;29.70;;;;;;5020457;28;20536;-57
2023/06/14 11:25:14;;;;;;;4.80;4.07;;;26.70;29.50;;;;;;5018859;28;20465;-59
2023/06/14 11:27:43;;;;;;;7.73;4.73;;;26.30;29.70;;;;;;5015437;28;20504;-58
2023/06/14 11:30:09;;;;;;;6.17;4.53;;;25.90;30.40;;;;;;5018168;28;20596;-57
2023/06/14 11:32:36;;;;;;;12.40;5.00;;;25.60;30.80;;;;;;5014871;28;20632;-59
2023/06/14 11:35:04;;;;;;;8.47;5.20;;;25.30;31.10;;;;;;5014726;28;20450;-58
2023/06/14 11:37:30;;;;;;;5.87;5.07;;;25.20;31.70;;;;;;5019546;28;20452;-59
2023/06/14 11:39:57;;;;;;;5.73;4.50;;;25.10;32.00;;;;;;5016076;28;20488;-55
2023/06/14 11:42:26;;;;;;;5.70;5.10;;;25.10;32.40;;;;;;5018632;28;20435;-58
2023/06/14 11:44:52;;;;;;;14.30;4.53;;;25.30;32.60;;;;;;5018258;28;20527;-58
2023/06/14 11:47:18;;;;;;;23.17;5.30;;;25.30;31.20;;;;;;5019456;28;20445;-57
2023/06/14 11:49:44;;;;;;;5.10;3.97;;;25.10;31.30;;;;;;5012585;28;20846;-58
2023/06/14 11:52:11;;;;;;;6.43;4.57;;;25.00;31.60;;;;;;5021211;28;20211;-57
2023/06/14 11:54:37;;;;;;;5.17;4.30;;;24.90;32.30;;;;;;5012971;28;20275;-57
2023/06/14 11:57:03;;;;;;;7.53;4.30;;;25.10;32.30;;;;;;5011955;28;21041;-60
2023/06/14 11:59:31;;;;;;;6.67;4.60;;;25.50;32.80;;;;;;5014967;28;20433;-59
2023/06/14 12:01:57;;;;;;;7.67;4.70;;;26.10;33.00;;;;;;5016074;28;20464;-59
2023/06/14 12:04:29;;;;;;;8.47;5.07;;;26.20;31.70;;;;;;5010468;28;20551;-58
2023/06/14 12:06:57;;;;;;;5.63;4.37;;;26.10;31.80;;;;;;5016146;28;20427;-56
2023/06/14 12:09:25;;;;;;;7.40;5.27;;;25.90;32.00;;;;;;5014724;28;20547;-57
2023/06/14 12:11:59;;;;;;;9.20;4.43;;;25.80;32.30;;;;;;5010109;28;20848;-57
2023/06/14 12:14:31;;;;;;;6.60;4.30;;;26.00;32.80;;;;;;5015122;28;20454;-56
2023/06/14 12:17:07;;;;;;;12.30;4.43;;;26.30;32.10;;;;;;5012065;28;20826;-56
2023/06/14 12:19:33;;;;;;;6.03;4.43;;;26.60;32.40;;;;;;5014151;28;20448;-57
2023/06/14 12:22:04;;;;;;;10.27;5.00;;;27.00;31.30;;;;;;5014873;28;20541;-56
2023/06/14 12:24:31;;;;;;;8.27;5.00;;;27.00;30.60;;;;;;5016390;28;20490;-55
2023/06/14 12:27:02;;;;;;;9.37;4.53;;;27.00;30.90;;;;;;5012332;28;20458;-57
2023/06/14 12:29:29;;;;;;;10.43;4.87;;;27.30;31.50;;;;;;5016283;28;20460;-56
2023/06/14 12:31:56;;;;;;;7.30;4.90;;;27.50;30.70;;;;;;5017327;28;20449;-59
2023/06/14 12:34:28;;;;;;;6.53;5.27;;;27.90;31.00;;;;;;5018574;28;20450;-57
2023/06/14 12:36:54;;;;;;;5.77;4.67;;;28.00;30.80;;;;;;5014509;28;20630;-59
2023/06/14 12:39:20;;;;;;;4.80;4.30;;;27.70;30.20;;;;;;5019861;28;20515;-56
2023/06/14 12:41:46;;;;;;;6.20;4.73;;;27.20;30.30;;;;;;5012175;28;20176;-54
2023/06/14 12:44:12;;;;;;;7.30;4.97;;;27.00;30.50;;;;;;5018081;28;20207;-55